Time;durP1;ratioP1;P1;durP2;ratioP2;P2;SDS_P1;SDS_P2;PMS_P1;PMS_P2;Temp;Humidity;BMP_temperature;BMP_pressure;BME280_temperature;BME280_humidity;BME280_pressure;Samples;Min_cycle;Max_cycle;Signal;HPM_P1;HPM_P2
2023/09/19 01:37:20;;;;;;;16.30;5.90;;;12.80;99.90;;;;;;6065262;23;20086;-81
2023/09/19 01:40:47;;;;;;;19.55;5.63;;;12.70;99.90;;;;;;5990221;23;20023;-81
2023/09/19 02:28:38;;;;;;;21.92;6.40;;;12.50;99.90;;;;;;6183825;23;20021;-82
2023/09/19 02:54:40;;;;;;;;;;;;;;;;;;;;;
2023/09/19 03:11:01;;;;;;;;;;;;;;;;;;;;;
2023/09/19 03:25:50;;;;;;;14.30;4.18;;;12.60;99.90;;;;;;5807831;24;20026;-81
2023/09/19 03:29:08;;;;;;;;;;;;;;;;;;;;;
2023/09/19 03:44:03;;;;;;;14.75;6.22;;;12.80;99.90;;;;;;5845540;24;20023;-81
2023/09/19 03:54:44;;;;;;;17.65;5.03;;;12.80;99.90;;;;;;5756698;24;20082;-80
2023/09/19 04:02:21;;;;;;;;;;;;;;;;;;;;;
2023/09/19 04:05:38;;;;;;;19.48;5.90;;;12.90;99.90;;;;;;5891564;24;20438;-80
2023/09/19 04:20:59;;;;;;;19.13;6.57;;;12.80;99.90;;;;;;5962372;24;20024;-80
2023/09/19 04:32:18;;;;;;;12.68;5.10;;;12.80;99.90;;;;;;6045323;23;20083;-80
2023/09/19 04:36:17;;;;;;;;;;;;;;;;;;;;;
2023/09/19 04:40:06;;;;;;;;;;;;;;;;;;;;;
2023/09/19 04:55:07;;;;;;;18.92;5.00;;;12.50;99.90;;;;;;5888790;24;20032;-81
2023/09/19 04:58:20;;;;;;;17.08;4.97;;;12.60;99.90;;;;;;5882218;24;20029;-80
2023/09/19 07:46:12;;;;;;;14.32;4.28;;;14.40;99.90;;;;;;6187963;23;20028;-81
2023/09/19 07:55:47;;;;;;;10.27;2.55;;;14.60;99.90;;;;;;6144571;23;20088;-86
2023/09/19 07:58:15;;;;;;;19.33;4.50;;;14.70;99.90;;;;;;6129246;23;20335;-87
2023/09/19 08:00:41;;;;;;;16.20;4.10;;;14.70;99.90;;;;;;6129827;23;20021;-87
2023/09/19 08:03:08;;;;;;;17.15;5.10;;;14.80;99.90;;;;;;6153662;23;20445;-87
2023/09/19 08:05:34;;;;;;;13.48;4.30;;;14.90;99.90;;;;;;6128893;23;20018;-87
2023/09/19 08:08:02;;;;;;;16.17;3.97;;;15.00;99.90;;;;;;6129414;23;20025;-86
2023/09/19 08:10:35;;;;;;;13.55;4.30;;;15.00;99.90;;;;;;6154219;23;20044;-88
2023/09/19 08:13:02;;;;;;;16.52;4.75;;;15.00;99.90;;;;;;6129145;23;20017;-85
2023/09/19 08:15:36;;;;;;;14.63;3.55;;;15.00;99.90;;;;;;6153569;23;20021;-85
2023/09/19 08:18:22;;;;;;;14.02;3.90;;;15.00;99.90;;;;;;6154139;23;20017;-85
2023/09/19 08:21:01;;;;;;;12.10;3.80;;;15.10;99.90;;;;;;6129918;23;20462;-85
2023/09/19 08:23:29;;;;;;;17.13;3.70;;;15.20;99.90;;;;;;6152472;23;20390;-86
2023/09/19 08:26:07;;;;;;;15.68;3.90;;;15.30;99.90;;;;;;6128268;23;20020;-85
2023/09/19 08:28:36;;;;;;;13.20;3.15;;;15.30;99.90;;;;;;6152174;23;20446;-85
2023/09/19 08:31:06;;;;;;;17.13;4.18;;;15.40;99.90;;;;;;6152424;23;20457;-84
2023/09/19 08:33:36;;;;;;;17.20;4.63;;;15.50;99.90;;;;;;6153780;23;20017;-85
2023/09/19 08:36:06;;;;;;;12.40;3.50;;;15.50;99.90;;;;;;6129063;23;20042;-86
2023/09/19 08:38:33;;;;;;;13.23;3.47;;;15.60;99.90;;;;;;6128547;23;20416;-85
2023/09/19 08:41:07;;;;;;;18.67;4.15;;;15.70;99.90;;;;;;6152404;23;20015;-86
2023/09/19 08:43:33;;;;;;;14.57;3.90;;;15.70;99.90;;;;;;6151347;23;20556;-84
2023/09/19 08:46:12;;;;;;;12.35;3.10;;;15.80;99.90;;;;;;6151908;23;20024;-84
2023/09/19 08:49:05;;;;;;;12.32;3.53;;;15.80;99.90;;;;;;6153091;23;20009;-85
2023/09/19 08:51:44;;;;;;;11.95;3.50;;;16.00;99.90;;;;;;6129213;23;20312;-84
2023/09/19 08:54:22;;;;;;;12.40;3.20;;;16.20;99.90;;;;;;6128795;23;20017;-84
2023/09/19 08:56:50;;;;;;;15.13;3.60;;;16.50;99.90;;;;;;6153303;23;20013;-84
2023/09/19 08:59:24;;;;;;;14.57;3.60;;;16.80;99.90;;;;;;6128548;23;20028;-86
2023/09/19 09:01:53;;;;;;;11.88;3.47;;;17.00;99.90;;;;;;6152769;23;20450;-86
2023/09/19 09:04:20;;;;;;;13.48;2.90;;;17.20;99.90;;;;;;6153086;23;20017;-84
2023/09/19 09:06:53;;;;;;;13.57;3.35;;;17.20;99.90;;;;;;6152400;23;20084;-85
2023/09/19 09:09:18;;;;;;;;;;;17.30;99.90;;;;;;6153607;23;20442;-84
2023/09/19 09:11:45;;;;;;;15.95;3.75;;;17.40;99.90;;;;;;6151956;23;19922;-84
2023/09/19 09:14:11;;;;;;;11.05;3.10;;;17.50;99.90;;;;;;6152679;23;20025;-84
2023/09/19 09:16:37;;;;;;;13.68;3.70;;;17.60;99.90;;;;;;6128648;23;20565;-84
2023/09/19 09:19:02;;;;;;;10.43;2.60;;;17.70;99.90;;;;;;6153406;23;20065;-83
2023/09/19 09:21:28;;;;;;;14.05;4.10;;;17.80;99.90;;;;;;6127453;23;20473;-85
2023/09/19 09:23:54;;;;;;;17.83;3.42;;;17.80;99.90;;;;;;6152583;23;20023;-85
2023/09/19 09:26:47;;;;;;;11.98;3.17;;;17.80;99.90;;;;;;6152543;23;20092;-85
2023/09/19 09:29:13;;;;;;;10.10;2.88;;;17.70;99.90;;;;;;6122420;23;20013;-86
2023/09/19 09:31:42;;;;;;;11.27;3.25;;;17.60;99.90;;;;;;6152157;23;20023;-85
2023/09/19 09:34:09;;;;;;;10.13;3.15;;;17.50;99.90;;;;;;6128133;23;20529;-86
2023/09/19 09:36:36;;;;;;;12.35;3.45;;;17.60;99.90;;;;;;6151093;23;20013;-83
2023/09/19 09:39:15;;;;;;;9.85;2.70;;;17.60;99.90;;;;;;6151595;23;20390;-84
2023/09/19 09:41:41;;;;;;;11.88;3.25;;;17.60;99.90;;;;;;6151709;23;20022;-85
2023/09/19 09:44:15;;;;;;;9.68;3.00;;;17.60;99.90;;;;;;6128106;23;20014;-85
2023/09/19 09:47:27;;;;;;;12.63;3.40;;;17.70;99.90;;;;;;6152390;23;20020;-86
2023/09/19 09:49:40;;;;;;;11.77;3.08;;;17.80;99.90;;;;;;6151704;23;20428;-85
2023/09/19 09:52:07;;;;;;;10.27;3.40;;;17.90;99.90;;;;;;6128554;23;20017;-85
2023/09/19 09:54:37;;;;;;;10.77;3.63;;;17.90;99.90;;;;;;6152704;23;20018;-84
2023/09/19 09:57:14;;;;;;;10.73;3.63;;;17.80;99.90;;;;;;6152676;23;20014;-85
2023/09/19 09:59:57;;;;;;;14.23;3.75;;;17.80;99.90;;;;;;6151973;23;20382;-85
2023/09/19 10:02:36;;;;;;;14.13;3.78;;;17.70;99.90;;;;;;6152587;23;20032;-83
2023/09/19 10:05:28;;;;;;;12.00;3.50;;;17.60;99.90;;;;;;6128190;23;20065;-85
2023/09/19 10:08:08;;;;;;;12.15;3.88;;;17.60;99.90;;;;;;6126363;23;20021;-84
2023/09/19 10:13:07;;;;;;;;;;;17.90;99.90;;;;;;6153107;23;20018;-84
2023/09/19 10:15:33;;;;;;;11.05;3.70;;;18.00;99.90;;;;;;6152584;23;19920;-86
2023/09/19 10:18:06;;;;;;;10.75;3.33;;;18.30;99.90;;;;;;6120500;23;20017;-86
2023/09/19 10:20:42;;;;;;;10.00;3.20;;;18.30;99.90;;;;;;6120191;23;20068;-85
2023/09/19 10:23:12;;;;;;;10.15;3.03;;;18.20;99.90;;;;;;6124066;23;20114;-85
2023/09/19 10:25:48;;;;;;;14.65;4.47;;;18.00;99.90;;;;;;6147180;23;20013;-86
2023/09/19 10:28:16;;;;;;;7.65;2.10;;;17.80;99.90;;;;;;6122367;23;20354;-83
2023/09/19 10:30:47;;;;;;;11.93;4.50;;;17.80;99.90;;;;;;6129737;23;20382;-84
2023/09/19 10:33:15;;;;;;;11.25;3.25;;;18.10;99.90;;;;;;6130907;23;20390;-83
2023/09/19 10:35:48;;;;;;;9.70;3.72;;;18.30;99.90;;;;;;6123039;23;20022;-85
2023/09/19 10:38:20;;;;;;;12.80;4.35;;;18.50;99.90;;;;;;6124745;23;20485;-86
2023/09/19 10:40:54;;;;;;;13.40;4.27;;;18.70;99.90;;;;;;6127581;23;20454;-85
2023/09/19 10:43:24;;;;;;;9.65;3.78;;;18.80;99.90;;;;;;6128190;23;20010;-85
2023/09/19 10:45:52;;;;;;;13.90;4.07;;;18.70;99.90;;;;;;6127522;23;20064;-85
2023/09/19 10:48:25;;;;;;;13.32;4.00;;;18.60;99.90;;;;;;6127751;23;20080;-85
2023/09/19 10:50:54;;;;;;;;;;;18.50;99.90;;;;;;6129473;23;20056;-85
2023/09/19 10:53:21;;;;;;;13.55;3.88;;;18.40;99.90;;;;;;6155132;23;20506;-86
2023/09/19 10:56:00;;;;;;;13.52;3.17;;;18.50;99.90;;;;;;6154269;23;20021;-86
2023/09/19 10:58:34;;;;;;;11.85;3.67;;;18.70;99.90;;;;;;6130200;23;20454;-86
2023/09/19 11:01:11;;;;;;;10.68;3.47;;;18.60;99.90;;;;;;6130136;23;20013;-86
2023/09/19 11:03:43;;;;;;;13.13;3.58;;;18.60;99.90;;;;;;6153358;23;20021;-82
2023/09/19 11:06:18;;;;;;;12.60;3.70;;;18.60;99.90;;;;;;6128757;23;20009;-85
2023/09/19 11:08:57;;;;;;;11.70;3.80;;;18.50;99.90;;;;;;6129577;23;20009;-84
2023/09/19 11:11:46;;;;;;;11.65;3.67;;;18.50;99.90;;;;;;6129492;23;20045;-85
2023/09/19 11:14:15;;;;;;;14.65;4.03;;;18.70;99.90;;;;;;6128733;23;20399;-86
2023/09/19 11:17:11;;;;;;;11.98;3.67;;;18.90;99.90;;;;;;6129418;23;20014;-85
2023/09/19 11:22:53;;;;;;;12.38;3.60;;;18.90;99.90;;;;;;6154282;23;20024;-85
2023/09/19 11:25:30;;;;;;;10.05;3.42;;;19.20;99.90;;;;;;6152496;23;20009;-85
2023/09/19 11:28:18;;;;;;;12.13;3.63;;;19.40;99.90;;;;;;6128642;23;20450;-85
2023/09/19 11:30:49;;;;;;;13.73;3.83;;;19.30;99.90;;;;;;6127993;23;20358;-83
2023/09/19 11:33:33;;;;;;;11.00;3.42;;;19.30;99.90;;;;;;6151931;23;20025;-85
2023/09/19 11:36:07;;;;;;;12.68;3.53;;;19.20;99.90;;;;;;6127200;23;20100;-85
2023/09/19 11:38:45;;;;;;;13.30;3.78;;;19.00;99.90;;;;;;6154062;23;20013;-85
2023/09/19 11:41:26;;;;;;;10.13;3.08;;;19.00;99.90;;;;;;6154374;23;20341;-85
2023/09/19 11:44:03;;;;;;;11.98;3.25;;;18.90;99.90;;;;;;6153930;23;20017;-85
2023/09/19 11:46:52;;;;;;;10.60;3.05;;;18.90;99.90;;;;;;6129622;23;20123;-85
2023/09/19 11:49:23;;;;;;;13.30;3.63;;;18.80;99.90;;;;;;6154023;23;20014;-86
2023/09/19 11:51:54;;;;;;;13.07;3.63;;;18.70;99.90;;;;;;6154404;23;20018;-85
2023/09/19 11:54:24;;;;;;;10.52;3.35;;;18.50;99.90;;;;;;6154092;23;20013;-85
2023/09/19 11:56:50;;;;;;;10.75;3.10;;;18.60;99.90;;;;;;6129430;23;20350;-86
2023/09/19 11:59:28;;;;;;;8.48;3.30;;;18.60;99.90;;;;;;6153707;23;20013;-85
2023/09/19 12:01:58;;;;;;;9.27;2.72;;;18.60;99.90;;;;;;6129326;23;20017;-87
2023/09/19 12:04:38;;;;;;;11.95;3.70;;;18.60;99.90;;;;;;6153361;23;20036;-87
2023/09/19 12:07:11;;;;;;;8.98;3.00;;;18.60;99.90;;;;;;6154155;23;20029;-85
2023/09/19 12:09:43;;;;;;;7.57;2.88;;;18.60;99.90;;;;;;6154010;23;20014;-85
2023/09/19 12:12:12;;;;;;;10.93;3.00;;;18.60;99.90;;;;;;6128974;23;20060;-86
2023/09/19 12:14:39;;;;;;;10.60;2.80;;;18.40;99.90;;;;;;6129415;23;20056;-84
2023/09/19 12:17:05;;;;;;;9.65;2.70;;;18.30;99.90;;;;;;6153834;23;20347;-85
2023/09/19 12:19:30;;;;;;;11.20;2.70;;;18.10;99.90;;;;;;6129482;23;20018;-85
2023/09/19 12:22:09;;;;;;;9.20;2.83;;;18.00;99.90;;;;;;6153361;23;20016;-85
2023/09/19 12:24:38;;;;;;;7.57;2.90;;;17.90;99.90;;;;;;6153219;23;20016;-85
2023/09/19 12:27:06;;;;;;;9.15;2.50;;;17.90;99.90;;;;;;6129416;23;20017;-85
2023/09/19 12:29:41;;;;;;;11.00;2.75;;;18.10;99.90;;;;;;6129308;23;20040;-85
2023/09/19 12:32:07;;;;;;;9.18;2.78;;;18.20;99.90;;;;;;6128897;23;20438;-85
2023/09/19 12:34:39;;;;;;;9.63;3.03;;;18.40;99.90;;;;;;6153634;23;20068;-86
2023/09/19 12:37:22;;;;;;;10.85;3.13;;;18.40;99.90;;;;;;6153603;23;20016;-85
2023/09/19 12:40:22;;;;;;;7.75;2.40;;;18.40;99.90;;;;;;6129290;23;20032;-86
2023/09/19 12:42:48;;;;;;;7.20;2.13;;;18.40;99.90;;;;;;6128189;23;20013;-85
2023/09/19 12:45:17;;;;;;;10.60;2.72;;;18.40;99.90;;;;;;6128813;23;20026;-84
2023/09/19 12:48:17;;;;;;;11.25;2.80;;;18.20;99.90;;;;;;6153970;23;20020;-84
2023/09/19 12:51:05;;;;;;;7.57;2.38;;;18.20;99.90;;;;;;6129082;23;20052;-84
2023/09/19 12:53:46;;;;;;;8.82;2.78;;;18.10;99.90;;;;;;6128480;23;20014;-85
2023/09/19 12:56:17;;;;;;;10.02;2.92;;;18.10;99.90;;;;;;6153280;23;20024;-84
2023/09/19 12:58:58;;;;;;;7.05;2.63;;;18.00;99.90;;;;;;6153213;23;20085;-86
2023/09/19 13:01:27;;;;;;;7.97;2.83;;;17.90;99.90;;;;;;6153582;23;20021;-84
2023/09/19 13:04:12;;;;;;;10.50;2.50;;;17.80;99.90;;;;;;6152975;23;20013;-85
2023/09/19 13:06:43;;;;;;;6.90;2.35;;;17.70;99.90;;;;;;6153141;23;20021;-83
2023/09/19 13:09:10;;;;;;;6.55;2.22;;;17.60;99.90;;;;;;6128920;23;20013;-85
2023/09/19 13:11:40;;;;;;;8.48;2.40;;;17.60;99.90;;;;;;6153551;23;20025;-86
2023/09/19 13:14:21;;;;;;;8.73;2.53;;;17.60;99.90;;;;;;6128363;23;20014;-86
2023/09/19 13:16:56;;;;;;;8.05;2.70;;;17.60;99.90;;;;;;6152726;23;20011;-85
2023/09/19 13:19:54;;;;;;;8.73;2.67;;;17.60;99.90;;;;;;6152879;23;20462;-87
2023/09/19 13:22:48;;;;;;;8.35;2.42;;;17.60;99.90;;;;;;6128867;23;20021;-84
2023/09/19 13:25:18;;;;;;;9.60;2.38;;;17.50;99.90;;;;;;6153456;23;20013;-85
2023/09/19 13:27:45;;;;;;;5.97;2.30;;;17.50;99.90;;;;;;6128356;23;20458;-84
2023/09/19 13:30:13;;;;;;;8.90;2.50;;;17.50;99.90;;;;;;6153348;23;20341;-84
2023/09/19 13:32:40;;;;;;;9.95;2.58;;;17.50;99.90;;;;;;6128652;23;20021;-84
2023/09/19 13:35:08;;;;;;;10.77;2.95;;;17.50;99.90;;;;;;6128615;23;20017;-85
2023/09/19 13:37:41;;;;;;;6.60;2.67;;;17.60;99.90;;;;;;6128141;23;20013;-87
2023/09/19 13:40:11;;;;;;;8.27;2.30;;;17.60;99.90;;;;;;6153183;23;20025;-85
2023/09/19 13:42:37;;;;;;;11.77;2.53;;;17.60;99.90;;;;;;6153174;23;20010;-83
2023/09/19 13:45:11;;;;;;;4.72;2.03;;;17.70;99.90;;;;;;5089646;27;20373;-86
2023/09/19 13:47:38;;;;;;;6.95;2.35;;;17.70;99.90;;;;;;5070447;28;20040;-84
2023/09/19 13:50:04;;;;;;;7.47;2.25;;;17.90;99.90;;;;;;5087768;28;20050;-82
2023/09/19 13:52:31;;;;;;;8.27;2.63;;;18.10;99.90;;;;;;5088080;28;20078;-85
2023/09/19 13:54:57;;;;;;;6.43;2.22;;;18.20;99.90;;;;;;5088160;28;20051;-84
2023/09/19 13:57:27;;;;;;;7.35;1.90;;;18.20;99.90;;;;;;5062995;28;20103;-84
2023/09/19 13:59:56;;;;;;;7.28;1.90;;;18.20;99.90;;;;;;5087943;28;20506;-83
2023/09/19 14:02:24;;;;;;;6.97;2.08;;;18.20;99.90;;;;;;5088111;28;20127;-82
2023/09/19 14:04:53;;;;;;;7.85;2.28;;;18.20;99.90;;;;;;5087656;28;20084;-82
2023/09/19 14:07:19;;;;;;;5.75;2.00;;;18.30;99.90;;;;;;5086992;28;20093;-84
2023/09/19 14:09:45;;;;;;;8.95;2.15;;;18.30;99.90;;;;;;5070455;28;20482;-81
2023/09/19 14:12:11;;;;;;;5.30;1.83;;;18.30;99.90;;;;;;5071017;28;20032;-82
2023/09/19 14:14:36;;;;;;;7.72;2.00;;;18.30;99.90;;;;;;5087586;28;20075;-84
2023/09/19 14:17:07;;;;;;;6.47;1.42;;;18.20;99.90;;;;;;5086935;28;20044;-81
2023/09/19 14:19:33;;;;;;;6.38;1.90;;;18.20;99.90;;;;;;5087769;28;20521;-82
2023/09/19 14:22:00;;;;;;;6.60;1.55;;;18.10;99.90;;;;;;5070829;28;20044;-83
2023/09/19 14:24:26;;;;;;;6.53;1.80;;;18.00;99.90;;;;;;5070689;28;20040;-81
2023/09/19 14:26:51;;;;;;;5.80;1.70;;;18.00;99.90;;;;;;5086414;28;20442;-82
2023/09/19 14:29:17;;;;;;;6.50;1.85;;;17.90;99.90;;;;;;5083183;28;20039;-85
2023/09/19 14:31:43;;;;;;;3.78;1.58;;;17.90;99.90;;;;;;5070691;28;20558;-86
2023/09/19 14:34:11;;;;;;;4.28;2.03;;;17.80;99.90;;;;;;5070625;28;20040;-83
2023/09/19 14:36:38;;;;;;;5.60;1.77;;;17.80;99.90;;;;;;5066470;28;20043;-83
2023/09/19 14:39:04;;;;;;;8.63;2.13;;;17.70;99.90;;;;;;5057422;28;20127;-82
2023/09/19 14:41:31;;;;;;;5.82;1.70;;;17.70;99.90;;;;;;5087356;28;20035;-83
2023/09/19 14:43:56;;;;;;;6.93;2.10;;;17.70;99.90;;;;;;5087110;28;20032;-81
2023/09/19 14:46:24;;;;;;;8.23;1.75;;;17.70;99.90;;;;;;5086400;28;20067;-82
2023/09/19 14:48:51;;;;;;;6.53;1.98;;;17.60;99.90;;;;;;5086999;28;20048;-82
2023/09/19 14:51:18;;;;;;;6.05;1.85;;;17.70;99.90;;;;;;5070499;28;20131;-81
2023/09/19 14:53:45;;;;;;;6.60;2.00;;;17.60;99.90;;;;;;5070139;28;20478;-79
2023/09/19 14:56:11;;;;;;;5.38;1.63;;;17.60;99.90;;;;;;5058962;28;20036;-83
2023/09/19 14:58:41;;;;;;;7.10;1.98;;;17.60;99.90;;;;;;5053480;28;20403;-80
2023/09/19 15:01:10;;;;;;;5.13;1.90;;;17.60;99.90;;;;;;5036928;28;20045;-84
2023/09/19 15:03:36;;;;;;;5.28;1.90;;;17.60;99.90;;;;;;5053794;28;20291;-81
2023/09/19 15:06:14;;;;;;;5.95;1.98;;;17.60;99.90;;;;;;5053176;28;20037;-82
2023/09/19 15:08:45;;;;;;;6.95;1.80;;;17.70;99.90;;;;;;5064840;28;20048;-81
2023/09/19 15:11:12;;;;;;;5.00;1.60;;;17.70;99.90;;;;;;5073251;28;20085;-81
2023/09/19 15:13:37;;;;;;;5.70;1.83;;;17.70;99.90;;;;;;5055066;28;20079;-83
2023/09/19 15:16:08;;;;;;;3.85;1.70;;;17.60;99.90;;;;;;5072867;28;20106;-82
2023/09/19 15:18:37;;;;;;;6.43;2.10;;;17.60;99.90;;;;;;5073379;28;20048;-84
2023/09/19 15:21:13;;;;;;;5.97;2.00;;;17.60;99.90;;;;;;5073137;28;20040;-83
2023/09/19 15:23:41;;;;;;;8.55;2.03;;;17.50;99.90;;;;;;5056081;28;20033;-83
2023/09/19 15:26:08;;;;;;;7.63;2.42;;;17.60;99.90;;;;;;5072973;28;20040;-83
2023/09/19 15:28:34;;;;;;;5.82;1.63;;;17.60;99.90;;;;;;5049547;28;20048;-82
2023/09/19 15:31:10;;;;;;;8.63;2.00;;;17.60;99.90;;;;;;5072737;28;20045;-81
2023/09/19 15:33:37;;;;;;;7.47;2.00;;;17.60;99.90;;;;;;5072102;28;20513;-83
2023/09/19 15:36:15;;;;;;;4.50;1.80;;;17.60;99.90;;;;;;5069947;28;20048;-83
2023/09/19 15:38:50;;;;;;;6.63;2.42;;;17.60;99.90;;;;;;5078556;28;20059;-82
2023/09/19 15:41:16;;;;;;;6.03;2.00;;;17.60;99.90;;;;;;5089747;28;20120;-82
2023/09/19 15:43:41;;;;;;;8.25;2.20;;;17.60;99.90;;;;;;5060102;28;20098;-82
2023/09/19 15:46:07;;;;;;;7.22;2.28;;;17.50;99.90;;;;;;5051641;28;20032;-84
2023/09/19 15:48:32;;;;;;;8.20;2.25;;;17.50;99.90;;;;;;5070578;28;20029;-80
2023/09/19 15:51:03;;;;;;;7.32;2.45;;;17.60;99.90;;;;;;5041170;28;20036;-81
2023/09/19 15:53:47;;;;;;;8.00;2.10;;;17.60;99.90;;;;;;5045393;28;20119;-81
2023/09/19 15:56:13;;;;;;;7.15;2.25;;;17.50;99.90;;;;;;5077010;28;20045;-80
2023/09/19 15:58:44;;;;;;;8.75;2.65;;;17.40;99.90;;;;;;5052049;28;20068;-80
2023/09/19 16:01:10;;;;;;;8.95;2.38;;;17.40;99.90;;;;;;5070471;28;20051;-82
2023/09/19 16:03:43;;;;;;;6.43;2.38;;;17.40;99.90;;;;;;5083784;28;20044;-83
2023/09/19 16:06:13;;;;;;;6.35;2.15;;;17.30;99.90;;;;;;5065412;28;20098;-79
2023/09/19 16:08:44;;;;;;;5.93;2.13;;;17.30;99.90;;;;;;5055353;28;20040;-81
2023/09/19 16:11:11;;;;;;;8.60;2.60;;;17.20;99.90;;;;;;5072422;28;20066;-82
2023/09/19 16:13:41;;;;;;;6.43;2.25;;;17.20;99.90;;;;;;5074051;28;20044;-83
2023/09/19 16:16:14;;;;;;;9.55;2.90;;;17.20;99.90;;;;;;5053209;28;20032;-81
2023/09/19 16:18:44;;;;;;;6.32;2.72;;;17.20;99.90;;;;;;5061832;28;20040;-83
2023/09/19 16:21:11;;;;;;;6.75;2.70;;;17.10;99.90;;;;;;5075201;28;20040;-79
2023/09/19 16:23:37;;;;;;;7.20;2.88;;;17.10;99.90;;;;;;5078888;28;20127;-80
2023/09/19 16:26:10;;;;;;;9.02;3.38;;;17.00;99.90;;;;;;5068585;28;20048;-82
2023/09/19 16:28:36;;;;;;;6.97;2.80;;;17.00;99.90;;;;;;5064047;28;20493;-81
2023/09/19 16:31:06;;;;;;;10.10;3.13;;;16.90;99.90;;;;;;5075550;28;20131;-82
2023/09/19 16:33:34;;;;;;;6.55;3.10;;;16.90;99.90;;;;;;5056880;28;20102;-82
2023/09/19 16:36:00;;;;;;;10.88;3.72;;;16.90;99.90;;;;;;5067491;28;20048;-81
2023/09/19 16:38:27;;;;;;;8.73;2.80;;;16.90;99.90;;;;;;5054830;28;20083;-81
2023/09/19 16:40:57;;;;;;;8.85;2.90;;;16.90;99.90;;;;;;5071318;28;20040;-81
2023/09/19 16:43:27;;;;;;;8.85;3.25;;;16.90;99.90;;;;;;5052373;28;20044;-81
2023/09/19 16:46:01;;;;;;;6.47;2.38;;;16.90;99.90;;;;;;5065594;28;20041;-82
2023/09/19 16:48:27;;;;;;;9.25;3.08;;;16.80;99.90;;;;;;5067828;28;20041;-84
2023/09/19 16:50:54;;;;;;;7.88;3.00;;;16.80;99.90;;;;;;5060227;28;20044;-83
2023/09/19 16:53:20;;;;;;;9.55;2.88;;;16.80;99.90;;;;;;5043368;28;20045;-83
2023/09/19 16:55:47;;;;;;;6.28;2.67;;;16.80;99.90;;;;;;5057446;28;20039;-82
2023/09/19 16:58:14;;;;;;;7.75;2.75;;;16.80;99.90;;;;;;5072048;28;20435;-82
2023/09/19 17:00:39;;;;;;;9.27;2.85;;;16.80;99.90;;;;;;5071246;28;20498;-83
2023/09/19 17:03:06;;;;;;;7.50;2.90;;;16.70;99.90;;;;;;5069036;28;20040;-82
2023/09/19 17:05:32;;;;;;;8.15;2.80;;;16.80;99.90;;;;;;5063987;28;20041;-84
2023/09/19 17:08:01;;;;;;;9.23;3.15;;;16.70;99.90;;;;;;5072855;28;20051;-84
2023/09/19 17:10:32;;;;;;;8.48;3.17;;;16.70;99.90;;;;;;5079325;28;20048;-84
2023/09/19 17:12:58;;;;;;;11.45;3.88;;;16.70;99.90;;;;;;5080899;28;20040;-84
2023/09/19 17:15:24;;;;;;;9.60;3.25;;;16.60;99.90;;;;;;5077049;28;20063;-84
2023/09/19 17:17:51;;;;;;;7.97;3.05;;;16.60;99.90;;;;;;5064754;28;20113;-84
2023/09/19 17:20:17;;;;;;;10.70;3.38;;;16.50;99.90;;;;;;5072138;28;20043;-84
2023/09/19 17:22:43;;;;;;;9.27;3.25;;;16.50;99.90;;;;;;5085318;28;20043;-85
2023/09/19 17:25:09;;;;;;;8.88;3.80;;;16.40;99.90;;;;;;5061612;28;20046;-84
2023/09/19 17:27:35;;;;;;;5.85;2.55;;;16.40;99.90;;;;;;5078686;28;20123;-83
2023/09/19 17:30:01;;;;;;;9.60;3.42;;;16.40;99.90;;;;;;5057092;28;20059;-84
2023/09/19 17:32:26;;;;;;;7.20;3.20;;;16.30;99.90;;;;;;5048480;28;20064;-84
2023/09/19 17:34:52;;;;;;;9.98;3.38;;;16.30;99.90;;;;;;5068490;28;20040;-84
2023/09/19 17:37:18;;;;;;;7.03;3.28;;;16.30;99.90;;;;;;5069691;28;20573;-84
2023/09/19 17:39:44;;;;;;;11.25;3.55;;;16.30;99.90;;;;;;5035956;28;20119;-83
2023/09/19 17:42:12;;;;;;;7.97;3.42;;;16.30;99.90;;;;;;5062027;28;20123;-84
2023/09/19 17:44:38;;;;;;;7.45;2.85;;;16.30;99.90;;;;;;5064218;28;20040;-84
2023/09/19 17:47:04;;;;;;;10.15;3.50;;;16.30;99.90;;;;;;5065721;28;20046;-83
2023/09/19 17:49:30;;;;;;;12.48;3.15;;;16.30;99.90;;;;;;5065568;28;20112;-83
2023/09/19 17:51:55;;;;;;;10.25;3.38;;;16.30;99.90;;;;;;5069819;28;20028;-84
2023/09/19 17:54:23;;;;;;;7.88;3.20;;;16.30;99.90;;;;;;5047545;28;20094;-82
2023/09/19 17:56:49;;;;;;;8.57;3.50;;;16.20;99.90;;;;;;5064312;28;20047;-83
2023/09/19 17:59:14;;;;;;;8.93;3.55;;;16.20;99.90;;;;;;5071047;28;20071;-82
2023/09/19 18:01:43;;;;;;;7.03;2.90;;;16.10;99.90;;;;;;5048962;28;20039;-81
2023/09/19 18:04:09;;;;;;;7.80;3.30;;;16.10;99.90;;;;;;5084617;28;20110;-81
2023/09/19 18:06:37;;;;;;;9.35;3.90;;;16.00;99.90;;;;;;5069238;28;20049;-81
2023/09/19 18:09:07;;;;;;;7.57;3.20;;;16.00;99.90;;;;;;5051625;28;20304;-82
2023/09/19 18:11:32;;;;;;;9.10;3.45;;;15.90;99.90;;;;;;5052833;28;20028;-82
2023/09/19 18:13:59;;;;;;;8.48;3.33;;;15.90;99.90;;;;;;5065208;28;20051;-81
2023/09/19 18:16:27;;;;;;;8.65;3.67;;;15.90;99.90;;;;;;5070181;28;20048;-81
2023/09/19 18:18:55;;;;;;;10.20;3.72;;;15.80;99.90;;;;;;5046829;28;20067;-81
2023/09/19 18:21:21;;;;;;;10.05;3.67;;;15.80;99.90;;;;;;5058133;28;20040;-81
2023/09/19 18:23:53;;;;;;;9.60;4.32;;;15.80;99.90;;;;;;5070666;28;20505;-82
2023/09/19 18:26:19;;;;;;;7.93;2.90;;;15.70;99.90;;;;;;5044330;28;20032;-81
2023/09/19 18:28:44;;;;;;;9.93;4.40;;;15.70;99.90;;;;;;5072110;28;20320;-81
2023/09/19 18:31:11;;;;;;;9.18;3.72;;;15.70;99.90;;;;;;5050472;28;20079;-81
2023/09/19 18:33:36;;;;;;;12.90;4.93;;;15.70;99.90;;;;;;5051867;28;20036;-82
2023/09/19 18:36:06;;;;;;;11.63;4.68;;;15.60;99.90;;;;;;5069160;28;20560;-83
2023/09/19 18:38:32;;;;;;;9.60;4.45;;;15.60;99.90;;;;;;5036197;28;20507;-82
2023/09/19 18:40:58;;;;;;;14.05;4.90;;;15.60;99.90;;;;;;5086054;28;20041;-82
2023/09/19 18:43:23;;;;;;;10.70;4.85;;;15.50;99.90;;;;;;5052868;28;20541;-80
2023/09/19 18:45:56;;;;;;;11.27;4.55;;;15.50;99.90;;;;;;5058253;28;20028;-83
2023/09/19 18:48:22;;;;;;;12.25;4.40;;;15.50;99.90;;;;;;5057398;28;20040;-84
2023/09/19 18:50:48;;;;;;;11.13;4.90;;;15.50;99.90;;;;;;5084513;28;20025;-83
2023/09/19 18:53:14;;;;;;;11.02;5.53;;;15.60;99.90;;;;;;5048398;28;20036;-83
2023/09/19 18:55:40;;;;;;;11.85;4.65;;;15.50;99.90;;;;;;5052623;28;20169;-84
2023/09/19 18:58:08;;;;;;;8.70;4.38;;;15.40;99.90;;;;;;5056882;28;20040;-83
2023/09/19 19:00:34;;;;;;;9.45;4.40;;;15.40;99.90;;;;;;5058656;28;20108;-81
2023/09/19 19:02:59;;;;;;;11.82;5.35;;;15.40;99.90;;;;;;5058933;28;20045;-82
2023/09/19 19:05:25;;;;;;;12.20;5.38;;;15.40;99.90;;;;;;5072220;28;20040;-81
2023/09/19 19:07:50;;;;;;;10.15;4.97;;;15.40;99.90;;;;;;5068823;28;20039;-82
2023/09/19 19:10:17;;;;;;;13.00;5.47;;;15.30;99.90;;;;;;5060792;28;20037;-82
2023/09/19 19:12:43;;;;;;;12.23;5.90;;;15.30;99.90;;;;;;5048139;28;20033;-82
2023/09/19 19:15:09;;;;;;;11.02;5.43;;;15.30;99.90;;;;;;5066841;28;20044;-83
2023/09/19 19:17:35;;;;;;;11.45;6.90;;;15.30;99.90;;;;;;5050850;28;20074;-81
2023/09/19 19:20:02;;;;;;;11.27;6.30;;;15.40;99.90;;;;;;5074690;28;20055;-82
2023/09/19 19:22:28;;;;;;;11.85;5.72;;;15.30;99.90;;;;;;5065729;28;20083;-82
2023/09/19 19:24:54;;;;;;;12.90;5.45;;;15.30;99.90;;;;;;5057044;28;20085;-80
2023/09/19 19:27:20;;;;;;;15.02;6.90;;;15.30;99.90;;;;;;5049941;28;20064;-81
2023/09/19 19:29:47;;;;;;;10.50;5.65;;;15.30;99.90;;;;;;5061608;28;20447;-83
2023/09/19 19:32:13;;;;;;;16.65;6.82;;;15.30;99.90;;;;;;5079206;28;20050;-83
2023/09/19 19:34:39;;;;;;;12.40;6.05;;;15.30;99.90;;;;;;5075189;28;20133;-83
2023/09/19 19:37:05;;;;;;;10.80;6.22;;;15.30;99.90;;;;;;5075139;28;20533;-79
2023/09/19 19:39:31;;;;;;;14.50;6.07;;;15.20;99.90;;;;;;5065708;28;20044;-81
2023/09/19 19:41:58;;;;;;;15.15;6.88;;;15.20;99.90;;;;;;5060437;28;20483;-81
2023/09/19 19:44:25;;;;;;;13.45;6.78;;;15.20;99.90;;;;;;5089518;28;20040;-81
2023/09/19 19:46:50;;;;;;;12.98;6.93;;;15.30;99.90;;;;;;5079084;28;20111;-81
2023/09/19 19:49:16;;;;;;;12.30;5.57;;;15.30;99.90;;;;;;5054718;28;20043;-81
2023/09/19 19:51:44;;;;;;;10.13;6.07;;;15.30;99.90;;;;;;5060058;28;20032;-81
2023/09/19 19:54:12;;;;;;;12.55;7.00;;;15.30;99.90;;;;;;5053647;28;20318;-82
2023/09/19 19:56:40;;;;;;;11.27;7.25;;;15.30;99.90;;;;;;5047541;28;20403;-83
2023/09/19 19:59:06;;;;;;;10.82;7.28;;;15.30;99.90;;;;;;5039980;28;20036;-84
2023/09/19 20:01:32;;;;;;;11.90;6.50;;;15.30;99.90;;;;;;5074727;28;20442;-84
2023/09/19 20:03:57;;;;;;;12.27;6.32;;;15.30;99.90;;;;;;5069783;28;20072;-85
2023/09/19 20:06:24;;;;;;;14.88;8.55;;;15.30;99.90;;;;;;5071876;28;20036;-84
2023/09/19 20:08:51;;;;;;;13.05;7.45;;;15.30;99.90;;;;;;5059385;28;20501;-86
2023/09/19 20:11:18;;;;;;;12.38;8.02;;;15.30;99.90;;;;;;5053417;28;20488;-82
2023/09/19 20:13:44;;;;;;;13.60;8.95;;;15.30;99.90;;;;;;5079282;28;20036;-83
2023/09/19 20:16:09;;;;;;;11.75;7.53;;;15.30;99.90;;;;;;5055385;28;20556;-83
2023/09/19 20:18:37;;;;;;;14.35;8.80;;;15.30;99.90;;;;;;5073067;28;20040;-84